createdAt,value
2022-11-18T00:05:22.031Z,-2.27
2022-11-18T00:15:31.450Z,-2.24
2022-11-18T00:25:36.634Z,-2.19
2022-11-18T00:35:41.664Z,-2.22
2022-11-18T00:45:46.927Z,-2.22
2022-11-18T00:55:50.974Z,-2.11
2022-11-18T01:05:57.272Z,-2.09
2022-11-18T01:16:02.389Z,-2.16
2022-11-18T01:26:10.400Z,-2.15
2022-11-18T01:36:33.814Z,-2.19
2022-11-18T01:46:37.143Z,-2.18
2022-11-18T01:56:50.296Z,-2.12
2022-11-18T02:06:58.296Z,-2.04
2022-11-18T02:17:08.020Z,-2.05
2022-11-18T02:27:14.157Z,-2.05
2022-11-18T02:37:22.516Z,-1.98
2022-11-18T02:47:29.858Z,-1.97
2022-11-18T02:57:34.455Z,-1.84
2022-11-18T03:07:41.110Z,-1.74
2022-11-18T03:18:02.868Z,-1.67
2022-11-18T03:28:24.650Z,-1.64
2022-11-18T03:38:35.632Z,-1.53
2022-11-18T03:48:47.782Z,-1.52
2022-11-18T03:58:54.648Z,-1.50
2022-11-18T04:09:08.808Z,-1.43
2022-11-18T04:19:13.132Z,-1.48
2022-11-18T04:29:18.205Z,-1.54
2022-11-18T04:39:22.094Z,-1.53
2022-11-18T04:49:26.264Z,-1.48
2022-11-18T04:59:30.255Z,-1.52
2022-11-18T05:09:37.097Z,-1.64
2022-11-18T05:19:40.534Z,-1.74
2022-11-18T05:29:45.372Z,-1.76
2022-11-18T05:39:48.596Z,-1.86
2022-11-18T05:49:53.601Z,-1.94
2022-11-18T05:59:57.198Z,-1.93
2022-11-18T06:10:05.954Z,-1.90
2022-11-18T06:20:12.044Z,-1.82
2022-11-18T06:30:17.812Z,-1.76
2022-11-18T06:40:21.268Z,-1.81
2022-11-18T06:50:24.813Z,-1.79
2022-11-18T07:00:29.869Z,-1.82
2022-11-18T07:10:34.207Z,-1.83
2022-11-18T07:20:38.014Z,-1.76
2022-11-18T07:30:43.857Z,-1.75
2022-11-18T07:40:47.127Z,-1.91
2022-11-18T07:50:54.589Z,-1.89
2022-11-18T08:01:16.306Z,-1.62
2022-11-18T08:11:22.980Z,-1.23
2022-11-18T08:21:26.989Z,-1.10
2022-11-18T08:31:31.168Z,-1.29
2022-11-18T08:41:43.655Z,-1.30
2022-11-18T08:51:47.202Z,-1.13
2022-11-18T09:01:50.497Z,-1.11
2022-11-18T09:11:55.096Z,-0.95
2022-11-18T09:21:59.244Z,-0.55
2022-11-18T09:32:02.626Z,-0.24
2022-11-18T09:42:27.601Z,-0.20
2022-11-18T09:52:49.718Z,0.08
2022-11-18T10:03:23.068Z,-0.19
2022-11-18T10:13:53.441Z,-0.61
2022-11-18T10:24:14.157Z,-0.68
2022-11-18T10:34:20.369Z,-0.26
2022-11-18T10:44:30.895Z,0.04
2022-11-18T10:54:36.721Z,0.29
2022-11-18T11:04:41.957Z,0.40
2022-11-18T11:15:02.241Z,0.08
2022-11-18T11:25:22.188Z,-0.26
2022-11-18T11:35:43.706Z,-0.55
2022-11-18T11:46:08.723Z,-0.94
2022-11-18T11:56:29.918Z,-0.78
2022-11-18T12:06:36.106Z,-0.14
2022-11-18T12:16:54.210Z,0.30
2022-11-18T12:26:59.668Z,-0.09
2022-11-18T12:37:32.501Z,-0.73
2022-11-18T12:47:41.887Z,-1.03
2022-11-18T12:57:46.663Z,-1.27
2022-11-18T13:08:13.827Z,-1.30
2022-11-18T13:18:20.483Z,-1.24
2022-11-18T13:28:55.708Z,-0.94
2022-11-18T13:39:05.661Z,-0.75
2022-11-18T13:49:16.617Z,-0.75
2022-11-18T13:59:25.544Z,-0.91
2022-11-18T14:09:33.081Z,-1.32
2022-11-18T14:19:38.175Z,-1.44
2022-11-18T14:29:50.720Z,-1.55
2022-11-18T14:39:59.899Z,-1.68
2022-11-18T14:50:03.586Z,-1.75
2022-11-18T15:00:08.450Z,-2.01
2022-11-18T15:10:18.011Z,-2.22
2022-11-18T15:20:24.683Z,-2.37
2022-11-18T15:30:28.178Z,-2.54
2022-11-18T15:40:31.625Z,-2.68
2022-11-18T15:50:35.187Z,-2.79
2022-11-18T16:00:39.218Z,-2.90
2022-11-18T16:11:04.248Z,-2.95
2022-11-18T16:21:09.820Z,-2.92
2022-11-18T16:31:31.747Z,-2.93
2022-11-18T16:41:35.869Z,-2.97
2022-11-18T16:51:44.700Z,-2.99
2022-11-18T17:01:50.722Z,-2.95
2022-11-18T17:11:55.899Z,-2.89
2022-11-18T17:22:01.264Z,-2.90
2022-11-18T17:32:04.858Z,-2.99
2022-11-18T17:42:14.469Z,-2.92
2022-11-18T17:52:21.726Z,-2.87
2022-11-18T18:02:25.086Z,-2.87
2022-11-18T18:12:47.023Z,-2.87
2022-11-18T18:22:54.453Z,-2.87
2022-11-18T18:33:04.216Z,-2.94
2022-11-18T18:43:07.744Z,-2.92
2022-11-18T18:53:11.375Z,-2.85
2022-11-18T19:03:17.454Z,-2.77
2022-11-18T19:13:20.838Z,-2.70
2022-11-18T19:23:26.098Z,-2.75
2022-11-18T19:33:29.537Z,-2.81
2022-11-18T19:43:33.098Z,-2.76
2022-11-18T19:53:40.500Z,-2.71
2022-11-18T20:03:50.317Z,-2.74
2022-11-18T20:13:54.043Z,-2.68
2022-11-18T20:24:03.849Z,-2.69
2022-11-18T20:34:15.071Z,-2.70
2022-11-18T20:44:21.508Z,-2.57
2022-11-18T20:54:25.147Z,-2.55
2022-11-18T21:04:28.473Z,-2.59
2022-11-18T21:14:31.882Z,-2.47
2022-11-18T21:24:35.689Z,-2.44
2022-11-18T21:34:39.016Z,-2.47
2022-11-18T21:44:42.367Z,-2.59
2022-11-18T21:54:45.892Z,-2.47
2022-11-18T22:04:55.159Z,-2.43
2022-11-18T22:14:58.591Z,-2.63
2022-11-18T22:25:02.093Z,-2.80
2022-11-18T22:35:06.154Z,-2.81
2022-11-18T22:45:09.889Z,-2.89
2022-11-18T22:55:14.291Z,-2.65
2022-11-18T23:05:19.712Z,-2.22
2022-11-18T23:15:25.738Z,-2.01
2022-11-18T23:25:30.255Z,-1.82
2022-11-18T23:35:39.881Z,-1.81
2022-11-18T23:45:46.405Z,-1.91
2022-11-18T23:55:53.008Z,-2.05
